Time;durP1;ratioP1;P1;durP2;ratioP2;P2;SDS_P1;SDS_P2;PMS_P1;PMS_P2;Temp;Humidity;BMP_temperature;BMP_pressure;BME280_temperature;BME280_humidity;BME280_pressure;Samples;Min_cycle;Max_cycle;Signal;HPM_P1;HPM_P2
2024/01/21 00:00:22;;;;;;;9.45;6.03;;;;;;;-1.66;100.00;102122.31;5033856;28;20033;-75
2024/01/21 00:02:48;;;;;;;9.05;4.93;;;;;;;-1.69;100.00;102107.63;5033742;28;20029;-76
2024/01/21 00:05:14;;;;;;;7.47;5.65;;;;;;;-1.64;100.00;102104.69;5051615;28;20021;-75
2024/01/21 00:07:39;;;;;;;8.20;5.32;;;;;;;-1.68;100.00;102098.81;5051496;28;20111;-75
2024/01/21 00:10:10;;;;;;;9.00;6.00;;;;;;;-1.72;100.00;102104.38;5051513;28;20033;-75
2024/01/21 00:12:36;;;;;;;8.05;5.22;;;;;;;-1.75;100.00;102092.28;5051477;28;20036;-75
2024/01/21 00:15:02;;;;;;;10.57;6.15;;;;;;;-1.82;100.00;102084.94;5035062;28;20037;-75
2024/01/21 00:17:28;;;;;;;8.18;5.90;;;;;;;-1.91;100.00;102082.00;5055022;28;20112;-75
2024/01/21 00:19:53;;;;;;;9.40;6.30;;;;;;;-1.92;100.00;102079.50;5054926;28;20115;-75
2024/01/21 00:22:18;;;;;;;8.90;5.60;;;;;;;-1.92;100.00;102072.47;5037138;28;20120;-75
2024/01/21 00:24:44;;;;;;;10.50;6.05;;;;;;;-1.92;100.00;102071.63;5054699;28;20041;-75
2024/01/21 00:27:09;;;;;;;10.38;6.60;;;;;;;-1.92;100.00;102084.72;5054801;28;20036;-75
2024/01/21 00:29:34;;;;;;;6.90;5.38;;;;;;;-1.94;100.00;102076.97;5054702;28;20028;-75
2024/01/21 00:32:00;;;;;;;7.95;5.90;;;;;;;-1.93;100.00;102068.16;5054689;28;20029;-75
2024/01/21 00:34:25;;;;;;;8.50;5.72;;;;;;;-1.95;100.00;102063.97;5054837;28;20041;-74
2024/01/21 00:36:50;;;;;;;9.85;6.20;;;;;;;-1.95;100.00;102048.25;5054602;28;20021;-75
2024/01/21 00:39:16;;;;;;;5.97;4.35;;;;;;;-2.01;100.00;102061.78;5054602;28;20164;-75
2024/01/21 00:41:42;;;;;;;11.88;6.65;;;;;;;-2.08;100.00;102055.25;5036799;28;20032;-75
2024/01/21 00:44:08;;;;;;;9.02;6.38;;;;;;;-2.25;100.00;102044.13;5054703;28;20040;-75
2024/01/21 00:46:38;;;;;;;7.90;5.95;;;;;;;-2.17;100.00;102061.09;5036485;28;20053;-75
2024/01/21 00:49:03;;;;;;;8.98;6.72;;;;;;;-2.21;100.00;102065.72;5036882;28;20378;-75
2024/01/21 00:51:29;;;;;;;9.90;5.90;;;;;;;-2.30;100.00;102063.69;5054548;28;20078;-76
2024/01/21 00:53:54;;;;;;;7.30;5.22;;;;;;;-2.41;100.00;102064.38;5054379;28;20529;-77
2024/01/21 00:56:19;;;;;;;10.55;5.80;;;;;;;-2.46;100.00;102069.09;5054522;28;20056;-75
2024/01/21 00:58:45;;;;;;;11.48;6.78;;;;;;;-2.60;100.00;102058.69;5036829;28;20492;-75
2024/01/21 01:01:10;;;;;;;14.02;7.30;;;;;;;-2.67;100.00;102063.44;5054625;28;20033;-75
2024/01/21 01:03:37;;;;;;;10.02;6.88;;;;;;;-2.77;100.00;102048.44;5036319;28;20043;-75
2024/01/21 01:06:03;;;;;;;11.57;7.50;;;;;;;-2.90;100.00;102032.66;5036393;28;20029;-76
2024/01/21 01:08:28;;;;;;;9.63;6.88;;;;;;;-2.96;100.00;102033.91;5054483;28;20035;-76
2024/01/21 01:10:54;;;;;;;14.02;6.97;;;;;;;-3.05;100.00;102017.94;5036544;28;20397;-75
2024/01/21 01:13:19;;;;;;;10.73;6.70;;;;;;;-3.18;100.00;102020.47;5053998;28;20385;-75
2024/01/21 01:15:44;;;;;;;12.50;7.40;;;;;;;-3.33;100.00;102000.53;5036098;28;20033;-75
2024/01/21 01:18:10;;;;;;;10.15;7.47;;;;;;;-3.28;100.00;102006.31;5036038;28;20032;-76
2024/01/21 01:20:35;;;;;;;10.55;6.65;;;;;;;-3.40;100.00;102001.84;5036327;28;20083;-75
2024/01/21 01:23:01;;;;;;;12.38;8.23;;;;;;;-3.39;100.00;101982.63;5053838;28;20452;-74
2024/01/21 01:25:27;;;;;;;10.95;6.78;;;;;;;-3.39;100.00;101985.22;5036204;28;20086;-74
2024/01/21 01:27:52;;;;;;;11.20;6.63;;;;;;;-3.37;100.00;101976.34;5035333;28;20041;-75
2024/01/21 01:30:18;;;;;;;11.10;6.25;;;;;;;-3.39;100.00;101977.38;5035972;28;20033;-74
2024/01/21 01:32:43;;;;;;;9.85;7.25;;;;;;;-3.42;100.00;101967.97;5036026;28;20029;-74
2024/01/21 01:35:09;;;;;;;11.23;6.93;;;;;;;-3.41;100.00;101969.66;5053885;28;20048;-74
2024/01/21 01:37:34;;;;;;;7.88;5.65;;;;;;;-3.45;100.00;101958.53;5035912;28;20424;-75
2024/01/21 01:40:00;;;;;;;9.57;6.65;;;;;;;-3.37;100.00;101965.06;5035944;28;20039;-75
2024/01/21 01:42:25;;;;;;;11.70;6.95;;;;;;;-3.35;100.00;101953.56;5053683;28;20449;-75
2024/01/21 01:44:51;;;;;;;8.98;6.55;;;;;;;-3.40;100.00;101939.94;5053664;28;20043;-75
2024/01/21 01:47:16;;;;;;;12.23;7.03;;;;;;;-3.37;100.00;101939.75;5035709;28;20032;-75
2024/01/21 01:49:42;;;;;;;8.57;6.57;;;;;;;-3.32;100.00;101936.84;5053623;28;20024;-75
2024/01/21 01:52:10;;;;;;;10.60;6.07;;;;;;;-3.36;100.00;101924.91;5035772;28;20127;-74
2024/01/21 01:54:37;;;;;;;7.28;5.40;;;;;;;-3.30;100.00;101919.28;5035357;28;20396;-75
2024/01/21 01:57:05;;;;;;;9.95;6.03;;;;;;;-3.32;100.00;101921.16;5035575;28;20033;-75
2024/01/21 01:59:33;;;;;;;8.98;5.57;;;;;;;-3.26;100.00;101924.22;5053346;28;20390;-75
2024/01/21 02:01:58;;;;;;;8.27;5.60;;;;;;;-3.22;100.00;101927.47;5035567;28;20401;-74
2024/01/21 02:04:24;;;;;;;11.85;7.38;;;;;;;-3.30;100.00;101916.66;5053385;28;20033;-76
2024/01/21 02:06:52;;;;;;;11.10;6.63;;;;;;;-3.29;100.00;101919.19;5053293;28;20036;-76
2024/01/21 02:09:17;;;;;;;7.95;5.57;;;;;;;-3.25;100.00;101911.97;5053422;28;20029;-76
2024/01/21 02:11:43;;;;;;;9.00;5.97;;;;;;;-3.29;100.00;101902.66;5035427;28;20123;-75
2024/01/21 02:14:09;;;;;;;8.25;4.90;;;;;;;-3.28;100.00;101897.31;5053264;28;20679;-75
2024/01/21 02:16:34;;;;;;;8.75;6.10;;;;;;;-3.37;100.00;101891.84;5053202;28;20039;-75
2024/01/21 02:19:03;;;;;;;9.07;5.65;;;;;;;-3.34;100.00;101892.50;5053281;28;20021;-76
2024/01/21 02:21:29;;;;;;;9.68;5.28;;;;;;;-3.30;100.00;101890.53;5045342;28;20587;-74
2024/01/21 02:23:54;;;;;;;10.13;5.85;;;;;;;-3.27;100.00;101892.94;5052865;28;20029;-75
2024/01/21 02:26:19;;;;;;;8.93;5.35;;;;;;;-3.25;100.00;101891.06;5035207;28;20374;-76
2024/01/21 02:28:45;;;;;;;9.57;6.57;;;;;;;-3.18;100.00;101881.88;5035080;28;20373;-74
2024/01/21 02:31:10;;;;;;;7.63;5.22;;;;;;;-3.12;100.00;101882.34;5034990;28;20774;-74
2024/01/21 02:33:36;;;;;;;10.15;6.30;;;;;;;-3.01;100.00;101886.00;5035099;28;20107;-74
2024/01/21 02:36:01;;;;;;;10.52;6.28;;;;;;;-2.97;100.00;101871.78;5052907;28;20307;-73
2024/01/21 02:38:26;;;;;;;8.10;5.45;;;;;;;-2.98;100.00;101857.88;5051618;28;20112;-74
2024/01/21 02:40:52;;;;;;;9.73;5.50;;;;;;;-2.89;100.00;101851.19;5052808;28;20082;-72
2024/01/21 02:43:17;;;;;;;7.70;5.93;;;;;;;-2.87;100.00;101851.94;5052655;28;20052;-73
2024/01/21 02:45:42;;;;;;;7.40;5.03;;;;;;;-2.81;100.00;101849.75;5052699;28;20025;-73
2024/01/21 02:48:08;;;;;;;5.60;4.45;;;;;;;-2.82;100.00;101848.06;5052564;28;20033;-73
2024/01/21 02:50:33;;;;;;;9.18;6.22;;;;;;;-2.83;100.00;101848.19;5052504;28;20048;-74
2024/01/21 02:52:58;;;;;;;12.75;5.55;;;;;;;-2.76;100.00;101845.97;5052457;28;20037;-75
2024/01/21 02:55:24;;;;;;;10.43;5.95;;;;;;;-2.75;100.00;101831.97;5052554;28;20087;-74
2024/01/21 02:57:49;;;;;;;8.73;5.55;;;;;;;-2.62;100.00;101843.25;5052565;28;20025;-73
2024/01/21 03:00:15;;;;;;;9.13;6.03;;;;;;;-2.59;100.00;101843.91;5052560;28;20025;-75
2024/01/21 03:02:40;;;;;;;9.57;5.93;;;;;;;-2.49;100.00;101838.88;5034615;28;20458;-75
2024/01/21 03:05:05;;;;;;;10.55;5.93;;;;;;;-2.52;100.00;101832.06;5052474;28;20028;-74
2024/01/21 03:07:31;;;;;;;6.32;5.03;;;;;;;-2.48;100.00;101827.47;5052465;28;20111;-74
2024/01/21 03:09:56;;;;;;;10.68;5.70;;;;;;;-2.34;100.00;101826.50;5052321;28;20445;-75
2024/01/21 03:12:21;;;;;;;9.93;6.18;;;;;;;-2.38;100.00;101819.81;5052510;28;20052;-75
2024/01/21 03:14:47;;;;;;;8.05;6.35;;;;;;;-2.40;100.00;101809.44;5052324;28;20171;-74
2024/01/21 03:17:12;;;;;;;9.40;6.95;;;;;;;-2.37;100.00;101811.00;5034531;28;20062;-74
2024/01/21 03:19:37;;;;;;;11.40;5.82;;;;;;;-2.37;100.00;101800.53;5052011;28;20123;-74
2024/01/21 03:22:03;;;;;;;8.93;4.55;;;;;;;-2.39;100.00;101805.88;5052151;28;20096;-75
2024/01/21 03:24:30;;;;;;;8.10;5.70;;;;;;;-2.41;100.00;101794.66;5034229;28;20040;-73
2024/01/21 03:26:56;;;;;;;7.90;5.00;;;;;;;-2.34;100.00;101795.91;5052174;28;20025;-74
2024/01/21 03:29:21;;;;;;;8.35;4.78;;;;;;;-2.22;100.00;101800.31;5051969;28;20371;-74
2024/01/21 03:31:46;;;;;;;8.73;5.10;;;;;;;-1.97;100.00;101815.13;5052081;28;20376;-74
2024/01/21 03:34:12;;;;;;;5.68;4.30;;;;;;;-1.83;100.00;101808.06;5051986;28;20368;-74
2024/01/21 03:36:37;;;;;;;6.18;4.07;;;;;;;-1.71;100.00;101799.34;5052084;28;20035;-74
2024/01/21 03:39:03;;;;;;;6.38;4.53;;;;;;;-1.58;100.00;101800.09;5051868;28;20359;-74
2024/01/21 03:41:28;;;;;;;6.18;4.70;;;;;;;-1.46;100.00;101803.59;5052029;28;20034;-73
2024/01/21 03:43:54;;;;;;;6.93;4.88;;;;;;;-1.44;100.00;101786.00;5051925;28;20040;-75
2024/01/21 03:46:19;;;;;;;5.00;3.80;;;;;;;-1.39;100.00;101794.34;5033914;28;20365;-73
2024/01/21 03:48:45;;;;;;;5.03;3.40;;;;;;;-1.32;100.00;101787.69;5051864;28;20025;-74
2024/01/21 03:51:10;;;;;;;6.50;4.70;;;;;;;-1.36;100.00;101791.50;5037069;28;20493;-74
2024/01/21 03:53:39;;;;;;;7.15;4.28;;;;;;;-1.32;100.00;101777.22;5055374;28;20051;-74
2024/01/21 03:56:05;;;;;;;8.13;5.00;;;;;;;-1.23;100.00;101776.50;5055313;28;20056;-74
2024/01/21 03:58:30;;;;;;;6.10;4.47;;;;;;;-1.25;100.00;101784.50;5055124;28;20033;-74
2024/01/21 04:00:56;;;;;;;8.48;4.53;;;;;;;-1.28;100.00;101771.63;5037328;28;20171;-74
2024/01/21 04:03:21;;;;;;;7.18;4.20;;;;;;;-1.27;100.00;101764.59;5055213;28;20060;-75
2024/01/21 04:05:47;;;;;;;7.80;5.55;;;;;;;-1.19;100.00;101756.97;5055140;28;20029;-74
2024/01/21 04:08:12;;;;;;;7.20;3.95;;;;;;;-1.27;100.00;101752.31;5055354;28;20112;-74
2024/01/21 04:10:39;;;;;;;8.25;4.50;;;;;;;-1.21;100.00;101742.28;5037308;28;20044;-73
2024/01/21 04:13:04;;;;;;;6.05;3.85;;;;;;;-1.30;100.00;101736.78;5054974;28;20033;-74
2024/01/21 04:15:30;;;;;;;5.35;4.07;;;;;;;-1.36;100.00;101736.44;5055013;28;20025;-75
2024/01/21 04:17:55;;;;;;;6.47;5.22;;;;;;;-1.39;100.00;101739.28;5036978;28;20044;-75
2024/01/21 04:20:20;;;;;;;8.25;5.05;;;;;;;-1.34;100.00;101742.38;5037165;28;20029;-74
2024/01/21 04:22:46;;;;;;;5.32;3.97;;;;;;;-1.31;100.00;101755.28;5054899;28;20051;-73
2024/01/21 04:25:11;;;;;;;6.35;4.72;;;;;;;-1.38;100.00;101754.06;5054994;28;20124;-74
2024/01/21 04:27:36;;;;;;;7.55;5.07;;;;;;;-1.37;100.00;101753.13;5054767;28;20029;-75
2024/01/21 04:30:02;;;;;;;5.15;3.70;;;;;;;-1.41;100.00;101738.56;5054725;28;20033;-75
2024/01/21 04:32:28;;;;;;;6.97;4.60;;;;;;;-1.42;100.00;101735.09;5036914;28;20025;-74
2024/01/21 04:34:53;;;;;;;6.47;4.75;;;;;;;-1.40;100.00;101729.75;5054742;28;20036;-74
2024/01/21 04:37:18;;;;;;;7.72;5.13;;;;;;;-1.31;100.00;101723.78;5054685;28;20369;-75
2024/01/21 04:39:44;;;;;;;6.78;4.55;;;;;;;-1.26;100.00;101714.63;5036751;28;20064;-75
2024/01/21 04:42:09;;;;;;;8.32;4.95;;;;;;;-1.19;100.00;101693.16;5054625;28;20051;-75
2024/01/21 04:44:34;;;;;;;7.55;5.00;;;;;;;-1.07;100.00;101693.06;5054929;28;20033;-75
2024/01/21 04:47:00;;;;;;;6.80;5.20;;;;;;;-1.00;100.00;101665.41;5036676;28;20032;-75
2024/01/21 04:49:25;;;;;;;6.30;4.85;;;;;;;-0.98;100.00;101666.13;5036524;28;20046;-75
2024/01/21 04:51:51;;;;;;;7.30;4.65;;;;;;;-0.87;100.00;101669.69;5054356;28;20033;-75
2024/01/21 04:54:16;;;;;;;7.35;4.53;;;;;;;-0.69;100.00;101668.25;5054334;28;20117;-75
2024/01/21 04:56:41;;;;;;;4.82;4.30;;;;;;;-0.61;100.00;101644.84;5036581;28;20029;-75
2024/01/21 04:59:07;;;;;;;7.10;4.55;;;;;;;-0.53;100.00;101654.75;5036333;28;20040;-75
2024/01/21 05:01:32;;;;;;;8.55;5.40;;;;;;;-0.55;100.00;101647.00;5053243;28;20067;-75
2024/01/21 05:03:58;;;;;;;6.47;5.15;;;;;;;-0.39;100.00;101644.81;5054300;28;20037;-75
2024/01/21 05:06:23;;;;;;;9.65;6.50;;;;;;;-0.32;100.00;101637.25;5036510;28;20533;-75
2024/01/21 05:08:48;;;;;;;9.00;5.93;;;;;;;-0.29;100.00;101646.69;5036391;28;20473;-74
2024/01/21 05:11:14;;;;;;;6.55;4.95;;;;;;;-0.19;100.00;101650.25;5054220;28;20072;-75
2024/01/21 05:13:40;;;;;;;9.32;6.63;;;;;;;-0.06;100.00;101645.66;5036209;28;20389;-75
2024/01/21 05:16:05;;;;;;;8.98;6.63;;;;;;;0.01;100.00;101646.84;5036186;28;20162;-75
2024/01/21 05:18:31;;;;;;;9.75;7.38;;;;;;;0.05;100.00;101660.56;5036225;28;20082;-73
2024/01/21 05:20:56;;;;;;;10.23;7.32;;;;;;;0.03;100.00;101652.81;5036084;28;20040;-74
2024/01/21 05:23:21;;;;;;;8.27;6.43;;;;;;;0.12;100.00;101648.59;5053905;28;20041;-72
2024/01/21 05:25:50;;;;;;;10.45;6.97;;;;;;;0.16;100.00;101650.84;5053889;28;20036;-74
2024/01/21 05:28:16;;;;;;;10.50;7.70;;;;;;;0.19;100.00;101632.16;5053902;28;20037;-73
2024/01/21 05:30:41;;;;;;;9.52;7.15;;;;;;;0.18;100.00;101637.56;5053892;28;20032;-73
2024/01/21 05:33:06;;;;;;;10.00;8.55;;;;;;;0.20;100.00;101641.72;5053769;28;20079;-74
2024/01/21 05:35:32;;;;;;;10.63;7.05;;;;;;;0.17;100.00;101630.63;5053877;28;20037;-74
2024/01/21 05:37:57;;;;;;;11.20;7.85;;;;;;;0.25;100.00;101665.00;5035937;28;20029;-72
2024/01/21 05:40:22;;;;;;;7.70;6.65;;;;;;;0.24;100.00;101637.88;5053706;28;20033;-75
2024/01/21 05:42:48;;;;;;;9.50;5.53;;;;;;;0.27;100.00;101648.13;5053595;28;20052;-74
2024/01/21 05:45:13;;;;;;;9.30;7.13;;;;;;;0.30;100.00;101628.66;5035635;28;20021;-73
2024/01/21 05:47:38;;;;;;;8.77;7.30;;;;;;;0.27;100.00;101631.53;5035791;28;20083;-74
2024/01/21 05:50:04;;;;;;;8.77;6.60;;;;;;;0.28;100.00;101627.94;5053446;28;20111;-75
2024/01/21 05:52:29;;;;;;;10.75;6.60;;;;;;;0.30;100.00;101637.41;5053708;28;20065;-75
2024/01/21 05:54:55;;;;;;;8.25;5.93;;;;;;;0.32;100.00;101645.16;5035581;28;20033;-73
2024/01/21 05:57:20;;;;;;;9.73;6.80;;;;;;;0.34;100.00;101637.13;5053541;28;20022;-74
2024/01/21 05:59:45;;;;;;;11.70;8.20;;;;;;;0.33;100.00;101619.69;5035586;28;20086;-75
2024/01/21 06:02:11;;;;;;;8.40;6.13;;;;;;;0.37;100.00;101634.25;5053373;28;20056;-74
2024/01/21 06:04:37;;;;;;;10.27;6.72;;;;;;;0.34;100.00;101621.34;5053339;28;20040;-75
2024/01/21 06:07:02;;;;;;;8.18;6.28;;;;;;;0.33;100.00;101604.75;5053382;28;20508;-76
2024/01/21 06:09:28;;;;;;;7.78;6.10;;;;;;;0.36;100.00;101608.91;5053261;28;20033;-73
2024/01/21 06:11:53;;;;;;;10.23;7.47;;;;;;;0.35;100.00;101613.34;5053282;28;20029;-75
2024/01/21 06:14:18;;;;;;;9.63;7.25;;;;;;;0.29;100.00;101591.03;5053116;28;20140;-76
2024/01/21 06:16:43;;;;;;;9.15;7.75;;;;;;;0.47;99.79;101621.97;5053140;28;20029;-75
2024/01/21 06:19:09;;;;;;;8.60;7.13;;;;;;;0.48;100.00;101621.00;5035315;28;20220;-75
2024/01/21 06:21:41;;;;;;;9.35;7.15;;;;;;;0.52;100.00;101636.41;5035320;28;20033;-75
2024/01/21 06:24:06;;;;;;;7.87;6.73;;;;;;;0.49;99.65;101641.94;5053224;28;20031;-74
2024/01/21 06:26:32;;;;;;;8.80;7.07;;;;;;;0.50;100.00;101655.91;5035266;28;20119;-75
2024/01/21 06:28:57;;;;;;;10.73;7.47;;;;;;;0.53;100.00;101669.66;5053150;28;20466;-75
2024/01/21 06:31:23;;;;;;;10.93;7.80;;;;;;;0.50;98.40;101643.59;5052875;28;20540;-76
2024/01/21 06:33:48;;;;;;;10.25;7.63;;;;;;;0.49;98.99;101639.31;5053158;28;20033;-75
2024/01/21 06:36:13;;;;;;;8.77;7.13;;;;;;;0.49;99.59;101636.66;5052970;28;20020;-76
2024/01/21 06:38:39;;;;;;;9.82;8.45;;;;;;;0.53;98.44;101643.34;5053129;28;20029;-77
2024/01/21 06:41:04;;;;;;;9.70;7.40;;;;;;;0.59;98.04;101634.94;5034961;28;20037;-76
2024/01/21 06:43:30;;;;;;;7.78;6.72;;;;;;;0.58;97.99;101658.75;5052901;28;20037;-75
2024/01/21 06:45:55;;;;;;;8.70;7.03;;;;;;;0.53;99.09;101640.72;5034914;28;20045;-76
2024/01/21 06:48:20;;;;;;;9.57;7.38;;;;;;;0.63;96.68;101637.31;5052886;28;20032;-74
2024/01/21 06:50:50;;;;;;;10.82;6.18;;;;;;;0.63;98.96;101659.19;5052786;28;20378;-75
2024/01/21 06:53:16;;;;;;;10.13;6.38;;;;;;;0.61;97.51;101647.97;5034805;28;20163;-75
2024/01/21 06:55:43;;;;;;;8.50;6.13;;;;;;;0.63;97.98;101661.84;5052659;28;20104;-74
2024/01/21 06:58:09;;;;;;;9.75;8.35;;;;;;;0.64;95.54;101666.13;5034920;28;20035;-75
2024/01/21 07:00:34;;;;;;;7.35;6.20;;;;;;;0.70;96.96;101660.34;5034723;28;20355;-76
2024/01/21 07:02:59;;;;;;;8.60;7.00;;;;;;;0.73;96.01;101628.50;5034673;28;20115;-74
2024/01/21 07:05:24;;;;;;;9.00;7.65;;;;;;;0.68;94.76;101654.38;5034488;28;20063;-73
2024/01/21 07:07:50;;;;;;;8.88;7.05;;;;;;;0.76;95.10;101622.13;5052469;28;20033;-75
2024/01/21 07:10:15;;;;;;;10.00;7.22;;;;;;;0.69;96.21;101615.75;5034739;28;20037;-77
2024/01/21 07:12:41;;;;;;;9.18;7.63;;;;;;;0.72;94.44;101595.25;5052556;28;20039;-75
2024/01/21 07:15:06;;;;;;;8.60;7.45;;;;;;;0.74;93.84;101582.78;5052187;28;20504;-75
2024/01/21 07:17:32;;;;;;;9.25;7.07;;;;;;;0.85;93.98;101595.84;5034536;28;20033;-74
2024/01/21 07:19:57;;;;;;;9.20;6.72;;;;;;;0.83;92.58;101589.06;5052187;28;20032;-75
2024/01/21 07:22:22;;;;;;;9.00;6.28;;;;;;;0.79;93.32;101596.38;5034448;28;20043;-75
2024/01/21 07:24:48;;;;;;;8.82;6.57;;;;;;;0.88;91.82;101600.88;5051463;28;20086;-74
2024/01/21 07:27:13;;;;;;;9.15;6.60;;;;;;;0.81;92.23;101583.09;5052345;28;20029;-76
2024/01/21 07:29:40;;;;;;;8.20;5.63;;;;;;;0.78;94.00;101597.34;5052222;28;20078;-76
2024/01/21 07:32:06;;;;;;;10.00;8.00;;;;;;;0.74;91.96;101600.38;5034518;28;20074;-75
2024/01/21 07:34:32;;;;;;;9.27;7.22;;;;;;;0.76;92.20;101601.91;5052118;28;20432;-76
2024/01/21 07:36:57;;;;;;;8.27;6.57;;;;;;;0.74;93.08;101595.94;5034205;28;20036;-75
2024/01/21 07:39:22;;;;;;;8.07;6.47;;;;;;;0.73;92.24;101599.56;5034401;28;20036;-74
2024/01/21 07:41:48;;;;;;;8.30;6.55;;;;;;;0.78;92.97;101602.63;5052332;28;20025;-76
2024/01/21 07:44:13;;;;;;;8.38;6.70;;;;;;;0.77;91.58;101589.59;5052021;28;20126;-75
2024/01/21 07:46:38;;;;;;;8.63;6.63;;;;;;;0.84;91.80;101590.72;5052259;28;20060;-77
2024/01/21 07:49:04;;;;;;;9.13;7.60;;;;;;;0.76;91.07;101598.44;5034158;28;20044;-75
2024/01/21 07:51:29;;;;;;;8.23;5.80;;;;;;;0.74;92.98;101611.75;5034023;28;20137;-76
2024/01/21 07:53:54;;;;;;;7.70;6.18;;;;;;;0.71;92.26;101637.50;5033965;28;20040;-75
2024/01/21 07:56:21;;;;;;;7.57;5.85;;;;;;;0.74;94.33;101631.97;5051852;28;20025;-76
2024/01/21 07:58:47;;;;;;;9.10;5.70;;;;;;;0.78;93.25;101626.31;5033888;28;20064;-76
2024/01/21 08:01:12;;;;;;;7.78;5.75;;;;;;;0.68;94.51;101638.59;5051881;28;20080;-76
2024/01/21 08:03:38;;;;;;;9.55;7.22;;;;;;;0.77;91.96;101655.38;5033948;28;20457;-76
2024/01/21 08:06:07;;;;;;;7.80;6.25;;;;;;;0.79;93.48;101675.34;5051612;28;20048;-76
2024/01/21 08:08:33;;;;;;;9.30;6.45;;;;;;;0.74;94.11;101693.34;5033625;28;20025;-76
2024/01/21 08:10:58;;;;;;;9.10;6.93;;;;;;;0.75;93.34;101684.47;5033783;28;20033;-76
2024/01/21 08:13:24;;;;;;;9.93;5.97;;;;;;;0.75;94.30;101704.69;5051765;28;20075;-76
2024/01/21 08:15:49;;;;;;;10.02;6.53;;;;;;;0.79;94.10;101701.66;5051603;28;20025;-76
2024/01/21 08:18:18;;;;;;;8.10;6.57;;;;;;;0.89;93.68;101715.75;5051461;28;20363;-76
2024/01/21 08:20:43;;;;;;;7.55;5.70;;;;;;;1.01;93.37;101707.75;5051789;28;20389;-76
2024/01/21 08:23:09;;;;;;;8.55;6.25;;;;;;;1.10;93.44;101692.00;5051518;28;20028;-77
2024/01/21 08:25:34;;;;;;;9.32;5.57;;;;;;;1.20;94.41;101689.44;5033604;28;20083;-77
2024/01/21 08:28:00;;;;;;;8.00;5.47;;;;;;;1.19;94.59;101698.31;5051560;28;20025;-77
2024/01/21 08:30:25;;;;;;;7.75;6.28;;;;;;;1.14;93.80;101693.41;5051434;28;20029;-75
2024/01/21 08:32:51;;;;;;;8.13;6.32;;;;;;;1.21;94.60;101691.09;5051519;28;20487;-77
2024/01/21 08:35:19;;;;;;;8.02;6.63;;;;;;;1.23;94.45;101687.38;5051473;28;20028;-76
2024/01/21 08:37:44;;;;;;;6.78;4.68;;;;;;;1.30;95.34;101669.22;5054356;28;20078;-74
2024/01/21 08:40:10;;;;;;;7.68;6.88;;;;;;;1.32;95.22;101635.66;5054644;28;20593;-75
2024/01/21 08:42:36;;;;;;;9.13;6.50;;;;;;;1.38;95.34;101673.81;5054305;28;20036;-75
2024/01/21 08:45:01;;;;;;;6.43;5.50;;;;;;;1.38;95.86;101674.66;5036396;28;20078;-77
2024/01/21 08:47:27;;;;;;;7.70;6.72;;;;;;;1.43;96.54;101688.25;5054245;28;20033;-75
2024/01/21 08:49:52;;;;;;;8.18;7.00;;;;;;;1.49;97.11;101679.00;5036299;28;20390;-76
2024/01/21 08:52:17;;;;;;;9.80;6.32;;;;;;;1.49;97.65;101685.09;5054296;28;20394;-76
2024/01/21 08:54:43;;;;;;;8.63;5.30;;;;;;;1.48;99.68;101699.25;5036193;28;20045;-76
2024/01/21 08:57:08;;;;;;;9.25;6.43;;;;;;;1.53;100.00;101710.22;5054479;28;20029;-76
2024/01/21 08:59:33;;;;;;;8.75;6.43;;;;;;;1.61;100.00;101687.63;5036982;28;20513;-76
2024/01/21 09:01:59;;;;;;;7.57;5.05;;;;;;;1.73;100.00;101694.44;5037151;28;20528;-77
2024/01/21 09:04:24;;;;;;;8.52;6.13;;;;;;;1.67;100.00;101694.97;5054812;28;20036;-77
2024/01/21 09:06:50;;;;;;;9.48;7.13;;;;;;;1.61;100.00;101693.72;5054681;28;20048;-75
2024/01/21 09:09:15;;;;;;;7.63;6.15;;;;;;;1.67;100.00;101680.00;5036971;28;20041;-78
2024/01/21 09:11:41;;;;;;;8.02;6.55;;;;;;;1.60;100.00;101670.13;5036889;28;20087;-77
2024/01/21 09:14:07;;;;;;;8.75;6.22;;;;;;;1.59;100.00;101695.66;5036318;28;20041;-77
2024/01/21 09:16:33;;;;;;;7.93;6.63;;;;;;;1.60;100.00;101699.13;5036570;28;20021;-75
2024/01/21 09:18:59;;;;;;;8.13;5.97;;;;;;;1.57;100.00;101702.03;5036791;28;20480;-75
2024/01/21 09:21:24;;;;;;;8.07;5.80;;;;;;;1.63;100.00;101727.84;5054959;28;20106;-76
2024/01/21 09:23:51;;;;;;;11.05;7.22;;;;;;;1.59;100.00;101722.00;5036668;28;20444;-78
2024/01/21 09:26:17;;;;;;;10.52;6.45;;;;;;;1.64;100.00;101716.34;5036529;28;20469;-78
2024/01/21 09:28:43;;;;;;;9.57;6.95;;;;;;;1.70;100.00;101706.09;5036560;28;20120;-79
2024/01/21 09:31:09;;;;;;;9.30;6.03;;;;;;;1.71;100.00;101696.38;5054528;28;20035;-79
2024/01/21 09:33:35;;;;;;;7.53;5.60;;;;;;;1.75;100.00;101721.53;5053984;28;20032;-81
2024/01/21 09:36:00;;;;;;;8.63;7.57;;;;;;;1.62;100.00;101734.09;5053928;28;20443;-77
2024/01/21 09:38:26;;;;;;;9.80;6.05;;;;;;;1.64;100.00;101735.63;5036077;28;20116;-79
2024/01/21 09:40:57;;;;;;;7.90;6.07;;;;;;;1.66;100.00;101744.22;5036144;28;20111;-81
2024/01/21 09:43:23;;;;;;;9.02;6.47;;;;;;;1.61;100.00;101746.44;5053730;28;20044;-77
2024/01/21 09:45:49;;;;;;;8.60;6.70;;;;;;;1.70;100.00;101729.81;5035951;28;20021;-79
2024/01/21 09:48:15;;;;;;;9.13;6.00;;;;;;;1.52;100.00;101727.00;5035191;28;20032;-84
2024/01/21 09:50:42;;;;;;;7.97;6.03;;;;;;;1.62;100.00;101740.19;5053841;28;20044;-81
2024/01/21 09:53:07;;;;;;;8.55;6.50;;;;;;;1.60;100.00;101730.75;5035932;28;20025;-81
2024/01/21 09:55:33;;;;;;;10.38;8.20;;;;;;;1.57;100.00;101720.47;5053868;28;20117;-83
2024/01/21 09:58:01;;;;;;;7.68;5.97;;;;;;;1.58;100.00;101751.97;5054285;28;20118;-84
2024/01/21 10:00:27;;;;;;;9.80;8.45;;;;;;;1.56;100.00;101748.63;5037027;28;20021;-85
2024/01/21 10:02:52;;;;;;;8.90;7.93;;;;;;;1.58;100.00;101751.16;5055359;28;20036;-85
2024/01/21 10:05:19;;;;;;;8.93;7.03;;;;;;;1.58;100.00;101736.16;5036292;28;20028;-82
2024/01/21 10:07:46;;;;;;;9.15;6.55;;;;;;;1.67;100.00;101726.59;5036562;28;20060;-84
2024/01/21 10:10:14;;;;;;;8.25;6.35;;;;;;;1.68;100.00;101736.19;5056024;28;20025;-86
2024/01/21 10:13:29;;;;;;;8.70;7.57;;;;;;;1.64;100.00;101733.00;5036255;28;20028;-84
2024/01/21 10:15:35;;;;;;;10.10;6.60;;;;;;;1.67;100.00;101721.34;5037839;28;20528;-83
2024/01/21 10:18:01;;;;;;;8.80;7.32;;;;;;;1.64;100.00;101693.44;5052986;28;20056;-85
2024/01/21 10:20:27;;;;;;;12.98;7.00;;;;;;;1.78;100.00;101729.16;5052693;28;20036;-84
2024/01/21 10:22:52;;;;;;;10.55;6.22;;;;;;;1.83;100.00;101713.75;5034839;28;20375;-84
2024/01/21 10:25:18;;;;;;;9.13;6.97;;;;;;;1.78;100.00;101722.09;5052807;28;20043;-85
2024/01/21 10:27:52;;;;;;;8.60;6.70;;;;;;;1.94;100.00;101715.44;5052685;28;20059;-89
2024/01/21 10:30:18;;;;;;;8.27;6.95;;;;;;;1.96;100.00;101716.13;5052827;28;20021;-86
2024/01/21 10:32:43;;;;;;;9.90;6.53;;;;;;;1.94;100.00;101707.53;5052608;28;20453;-87
2024/01/21 10:35:09;;;;;;;10.80;7.82;;;;;;;1.90;100.00;101706.97;5052217;28;20040;-83
2024/01/21 10:37:39;;;;;;;11.48;7.32;;;;;;;1.89;100.00;101684.22;5034943;28;20082;-86
2024/01/21 10:40:05;;;;;;;10.40;7.65;;;;;;;1.83;100.00;101688.22;5052586;28;20472;-85
2024/01/21 10:42:32;;;;;;;9.30;6.18;;;;;;;1.86;100.00;101680.03;5034904;28;20024;-85
2024/01/21 10:44:59;;;;;;;11.27;8.00;;;;;;;1.86;100.00;101689.75;5052716;28;20033;-84
2024/01/21 10:47:26;;;;;;;11.52;8.18;;;;;;;1.80;100.00;101664.78;5052602;28;20075;-82
2024/01/21 10:49:51;;;;;;;8.40;7.20;;;;;;;1.94;100.00;101689.91;5053056;28;20044;-83
2024/01/21 10:52:19;;;;;;;8.80;7.15;;;;;;;1.92;100.00;101665.47;5035106;28;20029;-82
2024/01/21 10:54:47;;;;;;;13.38;8.48;;;;;;;2.05;100.00;101673.97;5052905;28;20104;-78
2024/01/21 10:57:13;;;;;;;9.80;7.28;;;;;;;2.04;100.00;101660.91;5052805;28;20025;-77
2024/01/21 10:59:39;;;;;;;8.82;7.53;;;;;;;2.10;100.00;101665.63;5033993;28;20029;-81
2024/01/21 11:02:05;;;;;;;10.30;6.47;;;;;;;2.20;100.00;101669.09;5052805;28;20426;-79
2024/01/21 11:04:30;;;;;;;8.85;7.75;;;;;;;2.34;100.00;101657.31;5052370;28;20592;-81
2024/01/21 11:06:56;;;;;;;7.82;6.03;;;;;;;2.34;100.00;101650.22;5052429;28;20104;-80
2024/01/21 11:09:23;;;;;;;7.43;5.68;;;;;;;2.51;100.00;101659.22;5052229;28;20488;-79
2024/01/21 11:11:52;;;;;;;14.48;6.85;;;;;;;2.53;100.00;101657.25;5034581;28;20067;-79
2024/01/21 11:14:37;;;;;;;9.55;7.13;;;;;;;2.62;100.00;101664.34;5034207;28;20119;-77